Time;durP1;ratioP1;P1;durP2;ratioP2;P2;SDS_P1;SDS_P2;PMS_P1;PMS_P2;Temp;Humidity;BMP_temperature;BMP_pressure;BME280_temperature;BME280_humidity;BME280_pressure;Samples;Min_cycle;Max_cycle;Signal;HPM_P1;HPM_P2
2022/12/16 00:00:45;;;;;;;39.53;18.63;;;-4.00;99.90;;;;;;5033552;28;20075;-49
2022/12/16 00:03:11;;;;;;;40.25;19.23;;;-4.00;99.90;;;;;;5050287;28;20087;-53
2022/12/16 00:05:36;;;;;;;37.45;18.70;;;-4.10;99.90;;;;;;5048900;28;20032;-51
2022/12/16 00:08:03;;;;;;;35.47;18.80;;;-4.10;99.90;;;;;;5034526;28;20484;-50
2022/12/16 00:10:51;;;;;;;31.45;17.25;;;-4.10;99.90;;;;;;5033153;28;20025;-50
2022/12/16 00:13:14;;;;;;;32.50;17.10;;;-4.20;99.90;;;;;;5049750;28;20090;-57
2022/12/16 00:15:39;;;;;;;35.65;17.58;;;-4.20;99.90;;;;;;5048007;28;20104;-54
2022/12/16 00:18:05;;;;;;;29.50;16.15;;;-4.20;99.90;;;;;;5052926;28;20050;-51
2022/12/16 00:20:30;;;;;;;32.00;17.63;;;-4.20;99.90;;;;;;5052848;28;20021;-53
2022/12/16 00:22:56;;;;;;;33.35;18.05;;;-4.10;99.90;;;;;;5051937;28;20037;-53
2022/12/16 00:25:21;;;;;;;49.67;27.05;;;-4.10;99.90;;;;;;5052198;28;20021;-51
2022/12/16 00:27:47;;;;;;;42.50;22.38;;;-4.10;99.90;;;;;;5052677;28;20397;-51
2022/12/16 00:30:13;;;;;;;42.90;20.73;;;-4.10;99.90;;;;;;5052480;28;20017;-55
2022/12/16 00:32:38;;;;;;;29.35;15.50;;;-4.10;99.90;;;;;;5051793;28;20063;-54
2022/12/16 00:35:04;;;;;;;35.72;17.08;;;-4.00;99.90;;;;;;5034772;28;20028;-54
2022/12/16 00:37:29;;;;;;;29.13;15.02;;;-4.00;99.90;;;;;;5053060;28;20390;-52
2022/12/16 00:39:55;;;;;;;29.25;15.45;;;-4.00;99.90;;;;;;5034555;28;20025;-54
2022/12/16 00:42:20;;;;;;;31.88;17.08;;;-4.10;99.90;;;;;;5051691;28;20056;-52
2022/12/16 00:44:46;;;;;;;29.85;15.57;;;-4.00;99.90;;;;;;5052314;28;20029;-51
2022/12/16 00:47:11;;;;;;;30.52;15.60;;;-4.00;99.90;;;;;;5034376;28;20436;-57
2022/12/16 00:49:37;;;;;;;29.92;16.25;;;-4.00;99.90;;;;;;5052363;28;20108;-51
2022/12/16 00:52:03;;;;;;;28.45;15.98;;;-4.00;99.90;;;;;;5051416;28;20111;-51
2022/12/16 00:54:28;;;;;;;30.83;16.42;;;-4.00;99.90;;;;;;5034334;28;20516;-53
2022/12/16 00:56:54;;;;;;;29.17;16.75;;;-4.00;99.90;;;;;;5034125;28;20079;-53
2022/12/16 00:59:19;;;;;;;29.83;15.23;;;-4.10;99.90;;;;;;5052265;28;20516;-52
2022/12/16 01:01:45;;;;;;;32.70;16.63;;;-4.10;99.90;;;;;;5033786;28;20040;-50
2022/12/16 01:04:10;;;;;;;34.45;17.55;;;-4.00;99.90;;;;;;5051060;28;20033;-53
2022/12/16 01:06:36;;;;;;;25.92;13.95;;;-4.00;99.90;;;;;;5052035;28;20397;-53
2022/12/16 01:09:02;;;;;;;30.42;16.38;;;-4.10;99.90;;;;;;5052053;28;20417;-52
2022/12/16 01:11:27;;;;;;;29.92;15.98;;;-4.00;99.90;;;;;;5034060;28;20048;-52
2022/12/16 01:13:53;;;;;;;30.70;14.95;;;-4.00;99.90;;;;;;5051049;28;20491;-54
2022/12/16 01:16:18;;;;;;;29.17;15.57;;;-4.00;99.90;;;;;;5051750;28;20139;-55
2022/12/16 01:18:44;;;;;;;27.83;15.05;;;-4.00;99.90;;;;;;5034041;28;20025;-53
2022/12/16 01:21:14;;;;;;;26.95;15.35;;;-4.10;99.90;;;;;;5051775;28;20396;-51
2022/12/16 01:23:39;;;;;;;30.15;16.08;;;-4.10;99.90;;;;;;5032924;28;20110;-53
2022/12/16 01:26:05;;;;;;;29.92;15.30;;;-4.10;99.90;;;;;;5051527;28;20468;-55
2022/12/16 01:28:31;;;;;;;29.15;15.80;;;-4.10;99.90;;;;;;5051431;28;20514;-53
2022/12/16 01:31:00;;;;;;;30.98;16.58;;;-4.20;99.90;;;;;;5051467;28;20025;-53
2022/12/16 01:33:27;;;;;;;28.98;15.13;;;-4.20;99.90;;;;;;5050780;28;20412;-51
2022/12/16 01:36:05;;;;;;;28.70;15.93;;;-4.30;99.90;;;;;;5051415;28;20113;-52
2022/12/16 01:38:31;;;;;;;31.48;15.30;;;-4.40;99.90;;;;;;5050875;28;20087;-50
2022/12/16 01:40:59;;;;;;;28.95;14.70;;;-4.50;99.90;;;;;;5033391;28;20060;-51
2022/12/16 01:43:28;;;;;;;32.97;17.05;;;-4.50;99.90;;;;;;5050786;28;20083;-55
2022/12/16 01:46:02;;;;;;;28.95;15.63;;;-4.50;99.90;;;;;;5051288;28;20064;-52
2022/12/16 01:48:34;;;;;;;29.40;14.73;;;-4.60;99.90;;;;;;5051395;28;20028;-50
2022/12/16 01:51:06;;;;;;;31.45;16.58;;;-4.60;99.90;;;;;;5051327;28;20112;-52
2022/12/16 01:53:32;;;;;;;30.55;15.50;;;-4.60;99.90;;;;;;5050621;28;20116;-50
2022/12/16 01:56:00;;;;;;;25.60;13.98;;;-4.60;99.90;;;;;;5033396;28;20116;-54
2022/12/16 01:58:31;;;;;;;30.60;15.57;;;-4.60;99.90;;;;;;5033571;28;20029;-55
2022/12/16 02:00:56;;;;;;;27.15;14.95;;;-4.60;99.90;;;;;;5051167;28;20032;-52
2022/12/16 02:03:22;;;;;;;35.30;17.30;;;-4.70;99.90;;;;;;5050495;28;20029;-50
2022/12/16 02:05:48;;;;;;;32.05;16.13;;;-4.70;99.90;;;;;;5051167;28;20026;-54
2022/12/16 02:08:16;;;;;;;26.35;15.48;;;-4.70;99.90;;;;;;5051290;28;20124;-53
2022/12/16 02:10:55;;;;;;;31.42;15.35;;;-4.70;99.90;;;;;;5033404;28;20099;-52
2022/12/16 02:13:44;;;;;;;30.98;16.20;;;-4.80;99.90;;;;;;5050561;28;20063;-51
2022/12/16 02:16:09;;;;;;;23.98;13.63;;;-4.80;99.90;;;;;;5051116;28;20108;-54
2022/12/16 02:19:00;;;;;;;27.05;14.95;;;-4.80;99.90;;;;;;5033159;28;20212;-52
2022/12/16 02:22:00;;;;;;;29.17;14.30;;;-4.90;99.90;;;;;;5051019;28;20427;-54
2022/12/16 02:24:51;;;;;;;29.38;14.70;;;-4.90;99.90;;;;;;5037732;28;20095;-51
2022/12/16 02:27:19;;;;;;;31.55;16.98;;;-4.90;99.90;;;;;;5050867;28;20029;-50
2022/12/16 02:30:04;;;;;;;29.25;15.80;;;-5.00;99.90;;;;;;5051021;28;20029;-49
2022/12/16 02:32:47;;;;;;;27.63;14.43;;;-5.00;99.90;;;;;;5049982;28;20029;-52
2022/12/16 02:35:32;;;;;;;26.00;13.73;;;-5.00;99.90;;;;;;5050988;28;20036;-50
2022/12/16 02:38:07;;;;;;;29.23;16.40;;;-5.10;99.90;;;;;;5050910;28;20021;-53
2022/12/16 02:41:02;;;;;;;29.05;15.77;;;-5.10;99.90;;;;;;5051127;28;20129;-51
2022/12/16 02:44:00;;;;;;;24.73;14.23;;;-5.10;99.90;;;;;;5023648;28;20034;-53
2022/12/16 02:46:29;;;;;;;30.67;15.48;;;-5.00;99.90;;;;;;5050839;28;20493;-54
2022/12/16 02:48:54;;;;;;;28.67;15.15;;;-5.00;99.90;;;;;;5052699;28;20021;-50
2022/12/16 02:51:23;;;;;;;26.02;14.63;;;-5.10;99.90;;;;;;5036726;28;20075;-51
2022/12/16 02:53:49;;;;;;;27.17;14.20;;;-5.00;99.90;;;;;;5053621;28;20036;-52
2022/12/16 02:56:32;;;;;;;27.77;14.82;;;-5.00;99.90;;;;;;5054464;28;20029;-53
2022/12/16 02:59:17;;;;;;;32.78;17.88;;;-5.00;99.90;;;;;;5054370;28;20024;-50
2022/12/16 03:01:46;;;;;;;29.20;14.80;;;-5.00;99.90;;;;;;5054257;28;20028;-51
2022/12/16 03:04:22;;;;;;;28.52;13.68;;;-5.00;99.90;;;;;;5053634;28;20033;-56
2022/12/16 03:06:51;;;;;;;24.38;13.23;;;-5.00;99.90;;;;;;5054314;28;20024;-50
2022/12/16 03:09:31;;;;;;;24.92;13.70;;;-5.00;99.90;;;;;;5036367;28;20402;-50
2022/12/16 03:11:58;;;;;;;27.77;13.65;;;-5.00;99.90;;;;;;5053437;28;20025;-54
2022/12/16 03:14:27;;;;;;;30.08;13.90;;;-5.10;99.90;;;;;;5054148;28;20029;-51
2022/12/16 03:16:54;;;;;;;27.02;14.88;;;-5.10;99.90;;;;;;5036146;28;20078;-52
2022/12/16 03:19:21;;;;;;;33.28;14.77;;;-5.10;99.90;;;;;;5036079;28;20058;-49
2022/12/16 03:22:03;;;;;;;26.63;15.00;;;-5.10;99.90;;;;;;5053678;28;20060;-50
2022/12/16 03:24:29;;;;;;;31.17;15.52;;;-5.10;99.90;;;;;;5053993;28;20053;-54
2022/12/16 03:27:17;;;;;;;32.85;15.07;;;-5.10;99.90;;;;;;5035982;28;20076;-50
2022/12/16 03:30:08;;;;;;;24.98;14.15;;;-5.10;99.90;;;;;;5053864;28;20021;-50
2022/12/16 03:32:38;;;;;;;29.35;14.45;;;-5.10;99.90;;;;;;5041587;28;20045;-54
2022/12/16 03:35:20;;;;;;;30.63;15.98;;;-5.10;99.90;;;;;;5054095;28;20021;-49
2022/12/16 03:37:50;;;;;;;30.38;14.88;;;-5.10;99.90;;;;;;5053942;28;20219;-54
2022/12/16 03:40:16;;;;;;;28.20;14.57;;;-5.00;99.90;;;;;;5053922;28;20029;-55
2022/12/16 03:42:43;;;;;;;30.00;14.82;;;-5.00;99.90;;;;;;5053103;28;20456;-57
2022/12/16 03:45:15;;;;;;;31.38;14.85;;;-5.00;99.90;;;;;;5053836;28;20105;-57
2022/12/16 03:47:41;;;;;;;28.08;15.80;;;-5.00;99.90;;;;;;5052684;28;20025;-56
2022/12/16 03:50:07;;;;;;;26.00;14.43;;;-5.00;99.90;;;;;;5053664;28;20021;-57
2022/12/16 03:52:33;;;;;;;36.38;15.40;;;-5.10;99.90;;;;;;5052838;28;20016;-55
2022/12/16 03:54:58;;;;;;;28.75;14.48;;;-5.10;99.90;;;;;;5053928;28;20381;-58
2022/12/16 03:57:24;;;;;;;29.63;16.77;;;-5.10;99.90;;;;;;5053938;28;20021;-49
2022/12/16 03:59:49;;;;;;;30.15;16.02;;;-5.10;99.90;;;;;;5052298;28;20074;-53
2022/12/16 04:02:15;;;;;;;27.65;14.55;;;-5.20;99.90;;;;;;5035070;28;20025;-52
2022/12/16 04:04:40;;;;;;;30.48;15.25;;;-5.20;99.90;;;;;;5053243;28;20061;-49
2022/12/16 04:07:23;;;;;;;25.77;14.38;;;-5.20;99.90;;;;;;5035358;28;20025;-50
2022/12/16 04:09:49;;;;;;;26.48;15.32;;;-5.20;99.90;;;;;;5053256;28;20024;-49
2022/12/16 04:26:00;;;;;;;25.45;13.38;;;-5.30;99.90;;;;;;5052891;28;20476;-53
2022/12/16 04:28:26;;;;;;;24.92;14.57;;;-5.30;99.90;;;;;;5052809;28;20024;-52
2022/12/16 04:30:51;;;;;;;24.58;13.30;;;-5.30;99.90;;;;;;5052782;28;20017;-53
